createdAt,value
2022-12-12T00:04:00.084Z,50.50
2022-12-12T00:06:35.165Z,50.50
2022-12-12T00:09:05.437Z,50.50
2022-12-12T00:11:32.422Z,50.50
2022-12-12T00:14:02.834Z,50.40
2022-12-12T00:16:34.082Z,50.50
2022-12-12T00:19:06.985Z,50.40
2022-12-12T00:21:37.621Z,50.50
2022-12-12T00:24:10.510Z,50.40
2022-12-12T00:26:41.847Z,50.40
2022-12-12T00:29:13.166Z,50.40
2022-12-12T00:32:00.270Z,50.40
2022-12-12T00:34:32.554Z,50.50
2022-12-12T00:37:01.848Z,50.40
2022-12-12T00:39:34.738Z,50.40
2022-12-12T00:42:02.708Z,50.40
2022-12-12T00:44:32.314Z,50.40
2022-12-12T00:47:01.034Z,50.30
2022-12-12T00:49:34.285Z,50.30
2022-12-12T00:52:02.606Z,50.20
2022-12-12T00:54:42.785Z,50.30
2022-12-12T00:59:58.258Z,50.20
2022-12-12T01:02:28.334Z,50.20
2022-12-12T01:05:00.347Z,50.20
2022-12-12T01:07:27.687Z,50.20
2022-12-12T01:09:54.665Z,50.30
2022-12-12T01:12:21.533Z,50.30
2022-12-12T01:14:51.902Z,50.20
2022-12-12T01:17:26.161Z,50.30
2022-12-12T01:19:56.353Z,50.10
2022-12-12T01:22:35.929Z,50.20
2022-12-12T01:25:14.593Z,50.20
2022-12-12T01:27:45.991Z,50.20
2022-12-12T01:30:19.279Z,50.20
2022-12-12T01:32:49.000Z,50.20
2022-12-12T01:35:37.109Z,50.20
2022-12-12T01:38:11.051Z,50.10
2022-12-12T01:40:40.970Z,50.10
2022-12-12T01:43:30.722Z,50.10
2022-12-12T01:46:01.967Z,50.10
2022-12-12T01:48:37.913Z,50.00
2022-12-12T01:51:06.645Z,50.00
2022-12-12T01:53:38.598Z,50.00
2022-12-12T01:56:06.152Z,50.00
2022-12-12T01:58:39.112Z,50.00
2022-12-12T02:01:20.506Z,50.00
2022-12-12T02:03:49.789Z,50.00
2022-12-12T02:06:25.646Z,50.00
2022-12-12T02:08:59.842Z,50.00
2022-12-12T02:11:47.591Z,50.00
2022-12-12T02:14:17.950Z,50.00
2022-12-12T02:17:07.317Z,50.00
2022-12-12T02:19:53.040Z,50.00
2022-12-12T02:22:36.532Z,50.00
2022-12-12T02:25:18.698Z,49.90
2022-12-12T02:28:02.736Z,50.00
2022-12-12T02:31:00.615Z,50.00
2022-12-12T02:33:42.692Z,50.00
2022-12-12T02:36:17.378Z,50.00
2022-12-12T02:38:56.408Z,50.00
2022-12-12T02:41:49.351Z,50.00
2022-12-12T02:44:52.770Z,49.90
2022-12-12T02:47:24.064Z,49.90
2022-12-12T02:49:59.501Z,50.00
2022-12-12T02:52:28.227Z,50.00
2022-12-12T02:55:01.071Z,49.80
2022-12-12T02:57:41.583Z,49.90
2022-12-12T03:00:17.591Z,49.80
2022-12-12T03:03:35.878Z,49.80
2022-12-12T03:06:40.911Z,49.70
2022-12-12T03:09:20.516Z,49.80
2022-12-12T03:11:58.726Z,49.70
2022-12-12T03:14:42.874Z,49.60
2022-12-12T03:20:11.684Z,49.70
2022-12-12T03:22:56.528Z,49.70
2022-12-12T03:25:27.976Z,49.60
2022-12-12T03:28:08.116Z,49.70
2022-12-12T03:30:42.777Z,49.60
2022-12-12T03:33:22.296Z,49.70
2022-12-12T03:35:57.529Z,49.60
2022-12-12T03:38:26.754Z,49.60
2022-12-12T03:40:58.520Z,49.70
2022-12-12T03:43:29.198Z,49.60
2022-12-12T03:45:58.637Z,49.60
2022-12-12T03:48:30.405Z,49.60
2022-12-12T03:51:12.603Z,49.60
2022-12-12T03:53:42.853Z,49.60
2022-12-12T03:56:14.815Z,49.60
2022-12-12T03:59:05.265Z,49.70
2022-12-12T04:01:50.777Z,49.50
2022-12-12T04:04:22.676Z,49.60
2022-12-12T04:07:18.384Z,49.60
2022-12-12T04:10:03.777Z,49.50
2022-12-12T04:13:05.402Z,49.60
2022-12-12T04:15:47.706Z,49.60
2022-12-12T04:18:42.599Z,49.50
2022-12-12T04:21:43.521Z,49.50
2022-12-12T04:24:21.532Z,49.40
2022-12-12T04:27:00.372Z,49.40
2022-12-12T04:29:49.429Z,49.50
2022-12-12T04:32:22.318Z,49.40
2022-12-12T04:34:57.759Z,49.40
2022-12-12T04:37:30.220Z,49.30
2022-12-12T04:40:13.255Z,49.40
2022-12-12T04:42:46.642Z,49.40
2022-12-12T04:45:22.900Z,49.40
2022-12-12T04:48:04.216Z,49.40
2022-12-12T04:50:37.973Z,49.40
2022-12-12T04:53:14.935Z,49.30
2022-12-12T04:55:49.937Z,49.30
2022-12-12T05:01:09.646Z,49.30
2022-12-12T05:04:01.711Z,49.30
2022-12-12T05:07:08.250Z,49.30
2022-12-12T05:09:45.082Z,49.30
2022-12-12T05:12:23.622Z,49.30
2022-12-12T05:14:53.939Z,49.30
2022-12-12T05:17:23.643Z,49.20
2022-12-12T05:19:51.498Z,49.20
2022-12-12T05:22:28.078Z,49.10
2022-12-12T05:24:55.159Z,49.20
2022-12-12T05:27:22.074Z,49.10
2022-12-12T05:29:54.555Z,49.20
2022-12-12T05:32:30.986Z,49.10
2022-12-12T05:35:04.515Z,49.10
2022-12-12T05:37:34.111Z,49.10
2022-12-12T05:40:06.415Z,49.10
2022-12-12T05:42:33.548Z,49.00
2022-12-12T05:45:20.432Z,48.80
2022-12-12T05:47:50.543Z,49.10
2022-12-12T05:50:24.769Z,48.90
2022-12-12T05:53:07.823Z,49.00
2022-12-12T05:58:34.653Z,49.00
2022-12-12T06:01:09.686Z,49.00
2022-12-12T06:03:41.520Z,49.10
2022-12-12T06:06:19.076Z,49.10
2022-12-12T06:08:46.077Z,49.00
2022-12-12T06:11:15.384Z,49.20
2022-12-12T06:13:54.804Z,48.80
2022-12-12T06:16:23.534Z,49.20
2022-12-12T06:18:57.558Z,49.20
2022-12-12T06:21:30.388Z,49.40
2022-12-12T06:24:03.271Z,49.30
2022-12-12T06:26:32.773Z,49.40
2022-12-12T06:29:11.207Z,49.40
2022-12-12T06:31:46.356Z,49.40
2022-12-12T06:34:22.194Z,49.40
2022-12-12T06:36:55.028Z,49.40
2022-12-12T06:39:21.816Z,49.40
2022-12-12T06:41:57.246Z,49.30
2022-12-12T06:44:26.466Z,49.40
2022-12-12T06:47:00.628Z,49.30
2022-12-12T06:49:32.074Z,49.30
2022-12-12T06:52:01.381Z,49.30
2022-12-12T06:54:31.033Z,49.30
2022-12-12T06:56:58.047Z,49.30
2022-12-12T06:59:27.338Z,49.20
2022-12-12T07:01:58.366Z,49.20
2022-12-12T07:04:30.956Z,49.20
2022-12-12T07:07:00.364Z,49.20
2022-12-12T07:09:31.812Z,49.10
2022-12-12T07:12:03.381Z,49.10
2022-12-12T07:14:38.810Z,49.10
2022-12-12T07:17:09.024Z,49.10
2022-12-12T07:19:39.045Z,49.00
2022-12-12T07:22:09.714Z,49.00
2022-12-12T07:24:39.393Z,49.00
2022-12-12T07:27:08.111Z,48.90
2022-12-12T07:29:49.033Z,48.90
2022-12-12T07:32:20.741Z,48.90
2022-12-12T07:34:52.866Z,48.90
2022-12-12T07:37:26.276Z,48.90
2022-12-12T07:39:55.576Z,48.90
2022-12-12T07:42:22.519Z,48.90
2022-12-12T07:44:49.442Z,48.80
2022-12-12T07:47:16.542Z,48.80
2022-12-12T07:49:43.475Z,48.80
2022-12-12T07:52:13.789Z,48.80
2022-12-12T07:54:40.823Z,48.80
2022-12-12T07:57:12.715Z,48.80
2022-12-12T07:59:42.972Z,48.70
2022-12-12T08:02:48.025Z,48.70
2022-12-12T08:05:18.016Z,48.80
2022-12-12T08:07:47.370Z,48.70
2022-12-12T08:10:17.520Z,48.70
2022-12-12T08:12:44.405Z,48.70
2022-12-12T08:15:13.634Z,48.60
2022-12-12T08:17:40.897Z,48.60
2022-12-12T08:20:09.207Z,48.60
2022-12-12T08:22:40.343Z,48.60
2022-12-12T08:25:16.260Z,48.60
2022-12-12T08:27:46.011Z,48.60
2022-12-12T08:30:18.934Z,48.60
2022-12-12T08:32:48.091Z,48.60
2022-12-12T08:35:16.628Z,48.50
2022-12-12T08:37:47.517Z,48.60
2022-12-12T08:40:15.711Z,48.60
2022-12-12T08:42:43.477Z,48.60
2022-12-12T08:45:10.887Z,48.60
2022-12-12T08:47:38.044Z,48.50
2022-12-12T08:50:09.415Z,48.60
2022-12-12T08:52:39.000Z,48.50
2022-12-12T08:55:06.047Z,48.40
2022-12-12T08:57:36.161Z,48.40
2022-12-12T09:00:05.977Z,48.40
2022-12-12T09:02:33.069Z,48.40
2022-12-12T09:04:59.970Z,48.40
2022-12-12T09:07:29.344Z,48.40
2022-12-12T09:09:56.409Z,48.30
2022-12-12T09:12:26.735Z,48.30
2022-12-12T09:14:53.625Z,48.30
2022-12-12T09:17:20.516Z,48.30
2022-12-12T09:19:51.243Z,48.30
2022-12-12T09:22:18.318Z,48.30
2022-12-12T09:24:52.151Z,48.30
2022-12-12T09:27:22.941Z,48.30
2022-12-12T09:29:53.927Z,48.30
2022-12-12T09:32:24.981Z,48.30
2022-12-12T09:34:53.512Z,48.20
2022-12-12T09:37:28.425Z,48.30
2022-12-12T09:40:02.278Z,48.30
2022-12-12T09:42:35.256Z,48.20
2022-12-12T09:45:07.755Z,48.30
2022-12-12T09:47:42.275Z,48.20
2022-12-12T09:50:35.926Z,48.20
2022-12-12T09:53:14.536Z,48.20
2022-12-12T09:55:52.504Z,48.20
2022-12-12T09:58:48.325Z,48.30
2022-12-12T10:01:24.718Z,48.20
2022-12-12T10:04:05.524Z,48.20
2022-12-12T10:06:40.256Z,48.20
2022-12-12T10:09:09.782Z,48.20
2022-12-12T10:12:02.157Z,48.20
2022-12-12T10:14:41.416Z,48.20
2022-12-12T10:17:14.206Z,48.10
2022-12-12T10:19:51.813Z,48.20
2022-12-12T10:22:40.463Z,48.20
2022-12-12T10:25:37.200Z,48.10
2022-12-12T10:28:17.569Z,48.20
2022-12-12T10:30:56.159Z,48.20
2022-12-12T10:33:32.357Z,48.10
2022-12-12T10:36:14.445Z,48.10
2022-12-12T10:38:50.308Z,48.10
2022-12-12T10:41:37.594Z,48.10
2022-12-12T10:44:08.969Z,48.10
2022-12-12T10:46:44.169Z,48.10
2022-12-12T10:49:19.228Z,48.10
2022-12-12T10:51:52.508Z,48.10
2022-12-12T10:54:20.406Z,48.00
2022-12-12T10:57:16.524Z,48.10
2022-12-12T11:00:00.993Z,48.00
2022-12-12T11:02:32.230Z,48.00
2022-12-12T11:05:10.864Z,48.00
2022-12-12T11:07:42.106Z,48.00
2022-12-12T11:10:34.353Z,48.00
2022-12-12T11:13:22.440Z,47.90
2022-12-12T11:15:56.450Z,48.00
2022-12-12T11:18:28.326Z,48.00
2022-12-12T11:21:16.505Z,48.00
2022-12-12T11:23:47.677Z,47.90
2022-12-12T11:26:29.989Z,48.00
2022-12-12T11:29:01.060Z,47.90
2022-12-12T11:31:31.776Z,47.90
2022-12-12T11:34:05.071Z,47.90
2022-12-12T11:36:36.617Z,47.90
2022-12-12T11:39:16.426Z,47.80
2022-12-12T11:42:05.105Z,47.80
2022-12-12T11:44:38.040Z,47.90
2022-12-12T11:47:29.142Z,47.70
2022-12-12T11:50:00.172Z,47.60
2022-12-12T11:52:33.330Z,47.80
2022-12-12T11:55:14.844Z,47.70
2022-12-12T11:57:42.095Z,47.80
2022-12-12T12:00:16.517Z,47.80
2022-12-12T12:02:56.274Z,47.70
2022-12-12T12:05:40.081Z,47.60
2022-12-12T12:08:29.300Z,47.70
2022-12-12T12:11:12.443Z,47.60
2022-12-12T12:13:59.397Z,47.60
2022-12-12T12:16:38.133Z,47.60
2022-12-12T12:19:22.660Z,47.50
2022-12-12T12:22:08.692Z,47.60
2022-12-12T12:24:55.973Z,47.50
2022-12-12T12:27:49.829Z,47.50
2022-12-12T12:30:22.730Z,47.50
2022-12-12T12:33:08.629Z,47.50
2022-12-12T12:35:48.926Z,47.50
2022-12-12T12:38:26.469Z,47.50
2022-12-12T12:40:56.284Z,47.50
2022-12-12T12:43:29.271Z,47.50
2022-12-12T12:46:04.771Z,47.50
2022-12-12T12:48:49.834Z,47.50
2022-12-12T12:51:23.179Z,47.50
2022-12-12T12:53:59.443Z,47.50
2022-12-12T12:56:30.386Z,47.50
2022-12-12T12:59:02.034Z,47.50
2022-12-12T13:01:54.230Z,47.50
2022-12-12T13:05:01.880Z,47.50
2022-12-12T13:07:49.778Z,47.50
2022-12-12T13:10:37.438Z,47.50
2022-12-12T13:13:26.807Z,47.50
2022-12-12T13:16:16.053Z,47.50
2022-12-12T13:18:50.907Z,47.50
2022-12-12T13:21:27.953Z,47.50
2022-12-12T13:24:08.449Z,47.50
2022-12-12T13:26:59.002Z,47.50
2022-12-12T13:29:37.819Z,47.50
2022-12-12T13:32:22.822Z,47.50
2022-12-12T13:34:55.810Z,47.50
2022-12-12T13:37:28.118Z,47.50
2022-12-12T13:40:09.565Z,47.50
2022-12-12T13:43:09.958Z,47.50
2022-12-12T13:45:40.691Z,47.50
2022-12-12T13:48:30.395Z,47.50
2022-12-12T13:51:20.685Z,47.50
2022-12-12T13:54:07.274Z,47.50
2022-12-12T13:56:54.722Z,47.50
2022-12-12T13:59:32.007Z,47.50
2022-12-12T14:01:59.510Z,47.50
2022-12-12T14:04:32.320Z,47.50
2022-12-12T14:07:07.887Z,47.50
2022-12-12T14:09:47.604Z,47.50
2022-12-12T14:12:31.858Z,47.50
2022-12-12T14:15:17.865Z,47.50
2022-12-12T14:17:58.268Z,47.50
2022-12-12T14:20:39.708Z,47.50
2022-12-12T14:23:12.489Z,47.50
2022-12-12T14:25:46.393Z,47.50
2022-12-12T14:28:37.623Z,47.50
2022-12-12T14:31:20.663Z,47.50
2022-12-12T14:34:03.027Z,47.50
2022-12-12T14:36:44.515Z,47.40
2022-12-12T14:39:21.487Z,47.50
2022-12-12T14:41:57.555Z,47.50
2022-12-12T14:44:39.059Z,47.50
2022-12-12T14:47:10.518Z,47.50
2022-12-12T14:49:37.586Z,47.50
2022-12-12T14:52:11.444Z,47.40
2022-12-12T14:54:52.947Z,47.50
2022-12-12T14:57:26.632Z,47.50
2022-12-12T14:59:57.373Z,47.50
2022-12-12T15:02:53.091Z,47.00
2022-12-12T15:05:29.964Z,47.20
2022-12-12T15:08:14.037Z,47.30
2022-12-12T15:10:52.009Z,47.40
2022-12-12T15:13:22.457Z,47.40
2022-12-12T15:15:55.682Z,47.40
2022-12-12T15:18:26.566Z,47.40
2022-12-12T15:21:04.455Z,47.50
2022-12-12T15:23:39.878Z,47.40
2022-12-12T15:26:29.537Z,47.40
2022-12-12T15:29:12.934Z,47.50
2022-12-12T15:31:44.271Z,47.40
2022-12-12T15:34:31.123Z,47.50
2022-12-12T15:37:25.371Z,47.50
2022-12-12T15:42:59.057Z,47.50
2022-12-12T15:45:40.993Z,47.50
2022-12-12T15:48:18.341Z,47.50
2022-12-12T15:50:56.790Z,47.50
2022-12-12T15:53:24.819Z,47.50
2022-12-12T15:56:03.833Z,48.00
2022-12-12T15:58:46.725Z,47.40
2022-12-12T16:01:21.930Z,47.50
2022-12-12T16:04:01.372Z,47.40
2022-12-12T16:06:29.363Z,47.50
2022-12-12T16:09:26.453Z,47.30
2022-12-12T16:12:02.454Z,47.40
2022-12-12T16:14:39.787Z,47.20
2022-12-12T16:17:13.599Z,47.40
2022-12-12T16:20:03.321Z,47.30
2022-12-12T16:22:43.998Z,47.40
2022-12-12T16:25:11.615Z,47.30
2022-12-12T16:27:39.708Z,47.30
2022-12-12T16:30:26.585Z,47.40
2022-12-12T16:32:56.248Z,47.20
2022-12-12T16:35:33.855Z,47.20
2022-12-12T16:38:04.116Z,47.20
2022-12-12T16:40:33.517Z,47.20
2022-12-12T16:43:11.026Z,47.20
2022-12-12T16:45:41.568Z,47.10
2022-12-12T16:48:17.704Z,47.10
2022-12-12T16:50:47.186Z,47.20
2022-12-12T16:53:19.880Z,47.10
2022-12-12T16:55:47.963Z,47.20
2022-12-12T16:58:16.638Z,47.10
2022-12-12T17:00:47.927Z,47.20
2022-12-12T17:03:21.015Z,47.20
2022-12-12T17:05:52.464Z,46.80
2022-12-12T17:08:21.760Z,46.80
2022-12-12T17:10:49.562Z,47.10
2022-12-12T17:13:20.322Z,47.20
2022-12-12T17:15:53.255Z,47.30
2022-12-12T17:18:22.479Z,47.30
2022-12-12T17:20:49.755Z,47.40
2022-12-12T17:23:30.643Z,46.50
2022-12-12T17:26:04.243Z,47.20
2022-12-12T17:28:35.319Z,47.50
2022-12-12T17:31:11.798Z,47.60
2022-12-12T17:33:50.740Z,47.60
2022-12-12T17:36:28.126Z,48.20
2022-12-12T17:38:59.023Z,47.60
2022-12-12T17:41:31.218Z,47.60
2022-12-12T17:44:16.383Z,47.60
2022-12-12T17:46:56.340Z,47.60
2022-12-12T17:49:23.486Z,47.60
2022-12-12T17:51:52.788Z,47.60
2022-12-12T17:54:22.081Z,47.60
2022-12-12T17:56:55.834Z,47.60
2022-12-12T17:59:28.258Z,48.20
2022-12-12T18:02:02.163Z,47.60
2022-12-12T18:04:39.953Z,47.60
2022-12-12T18:07:10.199Z,47.70
2022-12-12T18:09:42.040Z,47.50
2022-12-12T18:12:12.978Z,47.60
2022-12-12T18:14:49.815Z,47.60
2022-12-12T18:17:28.684Z,47.60
2022-12-12T18:19:58.374Z,47.60
2022-12-12T18:22:31.378Z,47.60
2022-12-12T18:24:58.528Z,47.50
2022-12-12T18:27:29.418Z,47.60
2022-12-12T18:29:58.205Z,47.60
2022-12-12T18:32:27.424Z,47.60
2022-12-12T18:35:00.812Z,47.50
2022-12-12T18:37:37.179Z,47.60
2022-12-12T18:40:13.412Z,47.60
2022-12-12T18:43:01.689Z,47.60
2022-12-12T18:45:32.397Z,47.50
2022-12-12T18:48:19.739Z,47.60
2022-12-12T18:50:58.750Z,47.50
2022-12-12T18:53:30.835Z,47.50
2022-12-12T18:56:13.954Z,47.60
2022-12-12T18:58:42.861Z,47.60
2022-12-12T19:01:16.405Z,47.60
2022-12-12T19:03:56.711Z,47.50
2022-12-12T19:06:36.333Z,47.60
2022-12-12T19:09:06.972Z,47.50
2022-12-12T19:11:42.306Z,47.50
2022-12-12T19:14:19.913Z,47.50
2022-12-12T19:16:52.621Z,47.50
2022-12-12T19:19:22.393Z,47.50
2022-12-12T19:21:56.304Z,47.50
2022-12-12T19:24:26.110Z,47.50
2022-12-12T19:26:55.823Z,47.50
2022-12-12T19:29:28.621Z,47.50
2022-12-12T19:31:58.702Z,47.50
2022-12-12T19:34:28.534Z,47.50
2022-12-12T19:37:09.994Z,47.50
2022-12-12T19:39:40.119Z,47.50
2022-12-12T19:42:15.067Z,47.50
2022-12-12T19:44:49.998Z,47.50
2022-12-12T19:47:20.421Z,47.50
2022-12-12T19:49:48.784Z,47.50
2022-12-12T19:52:15.847Z,47.50
2022-12-12T19:54:55.788Z,47.50
2022-12-12T19:57:36.766Z,47.50
2022-12-12T20:02:57.760Z,47.50
2022-12-12T20:05:28.026Z,47.50
2022-12-12T20:08:01.367Z,47.50
2022-12-12T20:10:34.359Z,47.50
2022-12-12T20:13:08.281Z,47.60
2022-12-12T20:15:38.784Z,47.50
2022-12-12T20:18:20.733Z,47.50
2022-12-12T20:20:51.044Z,47.50
2022-12-12T20:23:26.455Z,47.50
2022-12-12T20:25:59.287Z,47.50
2022-12-12T20:28:29.665Z,47.50
2022-12-12T20:31:06.058Z,47.50
2022-12-12T20:33:38.542Z,47.50
2022-12-12T20:36:21.978Z,47.50
2022-12-12T20:38:57.104Z,47.50
2022-12-12T20:41:27.957Z,47.40
2022-12-12T20:43:54.974Z,47.50
2022-12-12T20:46:26.802Z,47.40
2022-12-12T20:48:53.586Z,47.40
2022-12-12T20:51:53.340Z,47.40
2022-12-12T20:54:07.304Z,47.50
2022-12-12T20:56:34.117Z,47.40
2022-12-12T20:59:01.429Z,47.50
2022-12-12T21:01:28.968Z,47.20
2022-12-12T21:03:55.561Z,46.90
2022-12-12T21:06:25.136Z,47.20
2022-12-12T21:08:51.870Z,47.30
2022-12-12T21:11:19.693Z,47.10
2022-12-12T21:13:46.325Z,47.10
2022-12-12T21:16:14.104Z,47.20
2022-12-12T21:18:40.855Z,47.10
2022-12-12T21:21:09.627Z,47.10
2022-12-12T21:23:36.248Z,47.10
2022-12-12T21:26:03.625Z,47.00
2022-12-12T21:28:30.315Z,47.10
2022-12-12T21:30:57.030Z,47.10
2022-12-12T21:33:23.711Z,47.10
2022-12-12T21:35:50.277Z,47.10
2022-12-12T21:38:16.841Z,47.10
2022-12-12T21:40:43.392Z,47.10
2022-12-12T21:43:09.982Z,47.00
2022-12-12T21:45:37.080Z,47.10
2022-12-12T21:48:03.945Z,47.10
2022-12-12T21:50:31.138Z,47.10
2022-12-12T21:53:16.537Z,47.10
2022-12-12T21:55:43.111Z,47.20
2022-12-12T21:58:09.690Z,47.10
2022-12-12T22:00:40.221Z,47.00
2022-12-12T22:03:07.051Z,47.00
2022-12-12T22:05:33.735Z,47.10
2022-12-12T22:08:00.392Z,47.00
2022-12-12T22:10:27.079Z,47.00
2022-12-12T22:12:56.876Z,47.00
2022-12-12T22:15:23.864Z,47.00
2022-12-12T22:17:50.496Z,47.00
2022-12-12T22:20:17.113Z,46.90
2022-12-12T22:22:43.702Z,46.90
2022-12-12T22:25:10.363Z,46.80
2022-12-12T22:27:36.971Z,46.90
2022-12-12T22:30:03.730Z,46.90
2022-12-12T22:32:30.293Z,46.80
2022-12-12T22:34:58.361Z,46.80
2022-12-12T22:37:24.936Z,46.90
2022-12-12T22:39:51.484Z,46.90
2022-12-12T22:42:18.183Z,46.90
2022-12-12T22:44:44.852Z,46.90
2022-12-12T22:47:11.512Z,46.80
2022-12-12T22:49:38.150Z,46.80
2022-12-12T22:52:04.794Z,46.90
2022-12-12T22:54:31.362Z,46.80
2022-12-12T22:56:58.067Z,46.90
2022-12-12T22:59:24.705Z,46.90
2022-12-12T23:01:51.242Z,46.80
2022-12-12T23:04:17.915Z,46.80
2022-12-12T23:06:44.553Z,46.80
2022-12-12T23:09:15.461Z,46.80
2022-12-12T23:11:42.298Z,46.90
2022-12-12T23:14:09.308Z,46.80
2022-12-12T23:16:36.089Z,46.80
2022-12-12T23:19:03.722Z,46.80
2022-12-12T23:21:30.313Z,46.80
2022-12-12T23:23:56.864Z,46.80
2022-12-12T23:26:24.346Z,46.70
2022-12-12T23:28:51.142Z,46.80
2022-12-12T23:31:22.014Z,46.70
2022-12-12T23:33:51.265Z,46.80
2022-12-12T23:36:17.825Z,46.80
2022-12-12T23:38:44.827Z,46.70
2022-12-12T23:41:12.266Z,46.80
2022-12-12T23:43:38.978Z,46.60
2022-12-12T23:46:06.695Z,46.70
2022-12-12T23:48:33.454Z,46.70
2022-12-12T23:51:00.100Z,46.70
2022-12-12T23:53:27.293Z,46.70
2022-12-12T23:55:53.868Z,46.70
2022-12-12T23:58:20.428Z,46.70
